createdAt,value
2019-01-14T00:00:18.497Z,39.50
2019-01-14T00:02:46.370Z,39.50
2019-01-14T00:05:14.046Z,39.50
2019-01-14T00:07:41.692Z,39.50
2019-01-14T00:10:09.416Z,39.50
2019-01-14T00:12:37.028Z,39.50
2019-01-14T00:15:06.507Z,39.50
2019-01-14T00:17:34.293Z,39.50
2019-01-14T00:20:01.913Z,39.50
2019-01-14T00:22:29.586Z,39.50
2019-01-14T00:24:57.243Z,39.40
2019-01-14T00:27:24.955Z,39.50
2019-01-14T00:29:52.597Z,39.40
2019-01-14T00:32:20.287Z,39.40
2019-01-14T00:34:47.944Z,39.40
2019-01-14T00:37:15.536Z,39.40
2019-01-14T00:39:43.187Z,39.40
2019-01-14T00:42:10.879Z,39.50
2019-01-14T00:44:38.489Z,39.30
2019-01-14T00:47:06.195Z,39.50
2019-01-14T00:49:33.805Z,39.50
2019-01-14T00:52:01.471Z,39.40
2019-01-14T00:54:29.129Z,39.40
2019-01-14T00:56:56.791Z,39.30
2019-01-14T00:59:24.377Z,39.40
2019-01-14T01:01:51.987Z,39.30
2019-01-14T01:04:19.641Z,39.30
2019-01-14T01:06:49.145Z,39.40
2019-01-14T01:09:17.026Z,39.30
2019-01-14T01:11:44.755Z,39.30
2019-01-14T01:14:12.362Z,39.30
2019-01-14T01:16:40.023Z,39.30
2019-01-14T01:19:07.725Z,39.30
2019-01-14T01:21:35.352Z,39.40
2019-01-14T01:24:02.933Z,39.30
2019-01-14T01:26:30.817Z,39.30
2019-01-14T01:28:58.411Z,39.30
2019-01-14T01:31:26.121Z,39.30
2019-01-14T01:33:53.762Z,39.30
2019-01-14T01:36:21.401Z,39.30
2019-01-14T01:38:49.054Z,39.30
2019-01-14T01:41:16.644Z,39.90
2019-01-14T01:43:44.276Z,38.90
2019-01-14T01:46:12.001Z,39.10
2019-01-14T01:48:39.613Z,39.00
2019-01-14T01:51:07.394Z,38.70
2019-01-14T01:53:35.063Z,38.60
2019-01-14T01:56:02.675Z,38.70
2019-01-14T01:58:30.347Z,38.60
2019-01-14T02:00:57.964Z,38.30
2019-01-14T02:03:25.562Z,38.40
2019-01-14T02:05:53.232Z,38.20
2019-01-14T02:08:20.825Z,38.30
2019-01-14T02:10:48.490Z,38.10
2019-01-14T02:13:16.079Z,38.10
2019-01-14T02:15:43.706Z,38.10
2019-01-14T02:18:11.440Z,37.90
2019-01-14T02:20:39.056Z,37.90
2019-01-14T02:23:06.660Z,38.00
2019-01-14T02:25:34.312Z,38.20
2019-01-14T02:28:01.928Z,38.10
2019-01-14T02:30:29.533Z,38.00
2019-01-14T02:32:57.238Z,38.00
2019-01-14T02:35:24.888Z,38.00
2019-01-14T02:37:52.498Z,37.90
2019-01-14T02:40:20.377Z,37.90
2019-01-14T02:42:48.023Z,37.90
2019-01-14T02:45:15.800Z,37.70
2019-01-14T02:47:43.533Z,37.70
2019-01-14T02:50:11.311Z,37.70
2019-01-14T02:52:39.769Z,37.70
2019-01-14T02:55:08.121Z,37.70
2019-01-14T02:57:35.750Z,37.70
2019-01-14T03:00:05.358Z,37.60
2019-01-14T03:02:33.079Z,37.60
2019-01-14T03:05:00.678Z,37.60
2019-01-14T03:07:28.314Z,37.60
2019-01-14T03:09:56.040Z,37.50
2019-01-14T03:12:23.658Z,37.60
2019-01-14T03:14:51.278Z,37.50
2019-01-14T03:17:19.089Z,37.50
2019-01-14T03:19:46.750Z,37.50
2019-01-14T03:22:14.436Z,37.40
2019-01-14T03:24:42.154Z,37.40
2019-01-14T03:27:09.736Z,37.40
2019-01-14T03:29:37.332Z,37.30
2019-01-14T03:32:04.983Z,37.10
2019-01-14T03:34:32.683Z,37.30
2019-01-14T03:37:05.402Z,37.20
2019-01-14T03:39:29.727Z,37.10
2019-01-14T03:41:57.328Z,37.10
2019-01-14T03:44:24.919Z,37.00
2019-01-14T03:46:52.646Z,37.00
2019-01-14T03:49:20.249Z,37.00
2019-01-14T03:51:47.846Z,36.80
2019-01-14T03:54:15.504Z,36.80
2019-01-14T03:56:43.121Z,36.80
2019-01-14T03:59:10.749Z,36.70
2019-01-14T04:01:38.449Z,36.60
2019-01-14T04:04:06.104Z,36.60
2019-01-14T04:06:33.702Z,36.70
2019-01-14T04:09:01.327Z,36.70
2019-01-14T04:11:28.987Z,36.60
2019-01-14T04:13:56.566Z,36.60
2019-01-14T04:16:24.175Z,36.60
2019-01-14T04:18:51.899Z,36.40
2019-01-14T04:21:19.494Z,36.40
2019-01-14T04:23:47.114Z,36.40
2019-01-14T04:26:16.618Z,36.40
2019-01-14T04:28:44.298Z,36.40
2019-01-14T04:31:11.978Z,36.40
2019-01-14T04:33:39.652Z,36.40
2019-01-14T04:36:07.291Z,36.40
2019-01-14T04:38:35.486Z,36.40
2019-01-14T04:41:03.154Z,36.40
2019-01-14T04:43:30.792Z,36.40
2019-01-14T04:45:58.419Z,36.40
2019-01-14T04:48:27.305Z,36.40
2019-01-14T04:50:55.172Z,36.40
2019-01-14T04:53:22.780Z,36.50
2019-01-14T04:55:50.418Z,36.40
2019-01-14T04:58:18.062Z,36.40
2019-01-14T05:00:45.680Z,36.40
2019-01-14T05:03:13.364Z,36.30
2019-01-14T05:05:41.091Z,36.30
2019-01-14T05:08:08.721Z,36.30
2019-01-14T05:10:36.377Z,36.30
2019-01-14T05:13:04.061Z,36.30
2019-01-14T05:15:31.717Z,36.20
2019-01-14T05:17:59.348Z,36.20
2019-01-14T05:20:27.073Z,36.20
2019-01-14T05:22:54.672Z,36.20
2019-01-14T05:25:22.272Z,36.30
2019-01-14T05:27:49.917Z,36.30
2019-01-14T05:30:19.268Z,36.20
2019-01-14T05:32:46.848Z,36.20
2019-01-14T05:35:14.525Z,36.20
2019-01-14T05:37:42.220Z,36.20
2019-01-14T05:40:11.478Z,36.10
2019-01-14T05:42:39.097Z,35.90
2019-01-14T05:45:07.161Z,36.10
2019-01-14T05:47:34.829Z,36.30
2019-01-14T05:50:02.791Z,37.10
2019-01-14T05:52:30.451Z,36.70
2019-01-14T05:54:58.075Z,36.80
2019-01-14T05:57:25.717Z,36.60
2019-01-14T05:59:53.473Z,36.90
2019-01-14T06:02:21.149Z,37.00
2019-01-14T06:04:48.995Z,36.40
2019-01-14T06:07:16.737Z,36.10
2019-01-14T06:09:44.334Z,36.20
2019-01-14T06:12:12.241Z,36.20
2019-01-14T06:14:39.951Z,37.00
2019-01-14T06:17:07.543Z,36.40
2019-01-14T06:19:36.061Z,36.10
2019-01-14T06:22:03.687Z,36.20
2019-01-14T06:24:31.321Z,36.20
2019-01-14T06:26:58.997Z,36.20
2019-01-14T06:29:26.587Z,36.40
2019-01-14T06:31:54.187Z,37.10
2019-01-14T06:34:21.847Z,37.40
2019-01-14T06:36:49.455Z,38.40
2019-01-14T06:39:17.082Z,39.20
2019-01-14T06:41:44.793Z,39.30
2019-01-14T06:44:12.422Z,39.30
2019-01-14T06:46:40.155Z,38.80
2019-01-14T06:49:07.863Z,38.50
2019-01-14T06:51:35.478Z,39.30
2019-01-14T06:54:03.150Z,39.20
2019-01-14T06:56:30.811Z,38.00
2019-01-14T06:58:58.397Z,39.30
2019-01-14T07:01:26.057Z,37.80
2019-01-14T07:03:53.726Z,37.60
2019-01-14T07:06:22.422Z,37.10
2019-01-14T07:08:50.213Z,37.90
2019-01-14T07:11:18.668Z,37.30
2019-01-14T07:13:46.319Z,36.40
2019-01-14T07:16:13.962Z,37.70
2019-01-14T07:18:41.586Z,37.80
2019-01-14T07:21:09.246Z,37.90
2019-01-14T07:23:36.862Z,38.00
2019-01-14T07:26:04.550Z,37.80
2019-01-14T07:28:32.149Z,37.90
2019-01-14T07:30:59.773Z,37.80
2019-01-14T07:33:27.361Z,37.70
2019-01-14T07:35:54.997Z,38.10
2019-01-14T07:38:22.677Z,37.50
2019-01-14T07:40:50.297Z,38.20
2019-01-14T07:43:18.011Z,37.80
2019-01-14T07:45:45.627Z,37.60
2019-01-14T07:48:13.229Z,37.60
2019-01-14T07:50:41.085Z,38.10
2019-01-14T07:53:08.722Z,37.70
2019-01-14T07:55:36.381Z,37.90
2019-01-14T07:58:04.109Z,37.80
2019-01-14T08:00:31.705Z,37.00
2019-01-14T08:02:59.392Z,37.40
2019-01-14T08:05:27.075Z,37.40
2019-01-14T08:07:54.693Z,38.10
2019-01-14T08:10:22.441Z,37.90
2019-01-14T08:12:50.218Z,38.10
2019-01-14T08:15:18.723Z,37.90
2019-01-14T08:17:46.396Z,37.90
2019-01-14T08:20:14.005Z,37.40
2019-01-14T08:22:41.663Z,37.70
2019-01-14T08:25:10.331Z,37.70
2019-01-14T08:27:37.967Z,37.50
2019-01-14T08:30:07.328Z,37.30
2019-01-14T08:32:35.031Z,37.80
2019-01-14T08:35:02.691Z,37.70
2019-01-14T08:37:30.296Z,37.50
2019-01-14T08:39:57.882Z,37.40
2019-01-14T08:42:25.625Z,37.30
2019-01-14T08:44:53.391Z,38.40
2019-01-14T08:47:21.127Z,37.90
2019-01-14T08:49:48.807Z,37.20
2019-01-14T08:52:16.426Z,36.70
2019-01-14T08:54:44.120Z,37.30
2019-01-14T08:57:11.824Z,37.80
2019-01-14T08:59:39.468Z,37.40
2019-01-14T09:02:07.122Z,37.70
2019-01-14T09:04:34.767Z,37.40
2019-01-14T09:07:02.502Z,36.90
2019-01-14T09:09:30.202Z,37.10
2019-01-14T09:11:57.810Z,37.10
2019-01-14T09:14:25.443Z,36.20
2019-01-14T09:16:53.122Z,36.50
2019-01-14T09:19:20.712Z,36.40
2019-01-14T09:21:51.163Z,36.60
2019-01-14T09:24:18.881Z,36.20
2019-01-14T09:26:46.500Z,36.30
2019-01-14T09:29:14.183Z,36.60
2019-01-14T09:31:42.116Z,36.30
2019-01-14T09:34:09.998Z,36.10
2019-01-14T09:36:37.578Z,36.30
2019-01-14T09:39:06.916Z,36.00
2019-01-14T09:41:34.593Z,36.30
2019-01-14T09:44:02.210Z,36.00
2019-01-14T09:46:29.878Z,36.20
2019-01-14T09:48:57.586Z,35.90
2019-01-14T09:51:25.252Z,36.10
2019-01-14T09:53:52.898Z,35.90
2019-01-14T09:56:20.601Z,36.10
2019-01-14T09:58:48.230Z,35.80
2019-01-14T10:01:15.899Z,35.70
2019-01-14T10:03:43.582Z,35.60
2019-01-14T10:06:11.227Z,35.60
2019-01-14T10:08:42.992Z,35.50
2019-01-14T10:11:08.256Z,35.60
2019-01-14T10:13:35.942Z,35.60
2019-01-14T10:16:03.532Z,35.40
2019-01-14T10:18:31.198Z,35.20
2019-01-14T10:20:58.892Z,35.10
2019-01-14T10:23:26.608Z,34.80
2019-01-14T10:25:54.355Z,34.60
2019-01-14T10:28:21.969Z,34.40
2019-01-14T10:30:49.622Z,34.50
2019-01-14T10:33:17.343Z,34.20
2019-01-14T10:35:45.006Z,34.20
2019-01-14T10:38:12.620Z,34.20
2019-01-14T10:40:40.300Z,34.00
2019-01-14T10:43:08.028Z,34.10
2019-01-14T10:45:35.706Z,34.10
2019-01-14T10:48:03.369Z,34.00
2019-01-14T10:50:30.970Z,33.50
2019-01-14T10:52:58.670Z,33.40
2019-01-14T10:55:26.350Z,33.40
2019-01-14T10:57:54.014Z,33.40
2019-01-14T11:00:25.098Z,33.40
2019-01-14T11:02:52.871Z,33.40
2019-01-14T11:05:22.972Z,33.40
2019-01-14T11:07:50.832Z,33.40
2019-01-14T11:10:18.631Z,33.40
2019-01-14T11:12:46.360Z,33.40
2019-01-14T11:15:15.248Z,33.40
2019-01-14T11:17:42.852Z,33.40
2019-01-14T11:20:14.910Z,33.40
2019-01-14T11:22:42.509Z,33.40
2019-01-14T11:25:10.173Z,33.40
2019-01-14T11:27:37.917Z,33.40
2019-01-14T11:30:07.231Z,33.40
2019-01-14T11:32:34.916Z,33.40
2019-01-14T11:35:02.554Z,33.40
2019-01-14T11:37:30.144Z,33.40
2019-01-14T11:39:57.786Z,33.40
2019-01-14T11:42:25.513Z,33.40
2019-01-14T11:44:53.142Z,33.40
2019-01-14T11:47:20.820Z,33.40
2019-01-14T11:49:48.476Z,33.40
2019-01-14T11:52:16.094Z,33.40
2019-01-14T11:54:43.706Z,33.40
2019-01-14T11:57:11.365Z,33.40
2019-01-14T11:59:39.059Z,33.40
2019-01-14T12:02:06.641Z,33.40
2019-01-14T12:04:34.291Z,33.40
2019-01-14T12:07:01.932Z,33.40
2019-01-14T12:09:29.659Z,33.40
2019-01-14T12:11:57.315Z,33.40
2019-01-14T12:14:24.906Z,33.40
2019-01-14T12:16:52.557Z,33.40
2019-01-14T12:19:20.190Z,33.40
2019-01-14T12:21:47.885Z,33.40
2019-01-14T12:24:15.612Z,33.40
2019-01-14T12:26:43.249Z,33.40
2019-01-14T12:29:10.920Z,33.30
2019-01-14T12:31:38.580Z,33.40
2019-01-14T12:34:06.267Z,33.40
2019-01-14T12:36:33.948Z,33.40
2019-01-14T12:39:01.644Z,33.40
2019-01-14T12:41:29.297Z,33.40
2019-01-14T12:43:56.935Z,33.20
2019-01-14T12:46:24.557Z,33.40
2019-01-14T12:48:52.208Z,33.00
2019-01-14T12:51:19.819Z,32.70
2019-01-14T12:53:47.485Z,32.70
2019-01-14T12:56:15.107Z,32.70
2019-01-14T12:58:42.713Z,32.50
2019-01-14T13:01:10.367Z,32.70
2019-01-14T13:03:38.029Z,32.40
2019-01-14T13:06:05.707Z,32.50
2019-01-14T13:08:33.373Z,32.50
2019-01-14T13:11:01.022Z,32.20
2019-01-14T13:13:28.637Z,32.20
2019-01-14T13:15:56.272Z,32.20
2019-01-14T13:18:23.941Z,31.90
2019-01-14T13:20:51.559Z,32.10
2019-01-14T13:23:19.165Z,31.90
2019-01-14T13:25:46.855Z,31.90
2019-01-14T13:28:14.525Z,31.90
2019-01-14T13:30:43.755Z,31.80
2019-01-14T13:33:11.434Z,31.80
2019-01-14T13:35:39.122Z,31.80
2019-01-14T13:38:06.737Z,31.80
2019-01-14T13:40:34.444Z,31.80
2019-01-14T13:43:02.087Z,31.70
2019-01-14T13:45:29.795Z,31.70
2019-01-14T13:47:57.413Z,31.70
2019-01-14T13:50:25.503Z,31.80
2019-01-14T13:52:53.098Z,31.40
2019-01-14T13:55:20.681Z,31.40
2019-01-14T13:57:48.342Z,31.30
2019-01-14T14:00:17.165Z,31.60
2019-01-14T14:02:44.811Z,31.60
2019-01-14T14:05:12.543Z,31.80
2019-01-14T14:07:40.141Z,32.20
2019-01-14T14:10:09.695Z,32.20
2019-01-14T14:12:37.413Z,31.80
2019-01-14T14:15:06.519Z,31.70
2019-01-14T14:17:35.069Z,31.80
2019-01-14T14:20:02.818Z,31.80
2019-01-14T14:22:30.706Z,31.70
2019-01-14T14:24:58.278Z,31.80
2019-01-14T14:27:25.947Z,31.90
2019-01-14T14:29:53.569Z,31.90
2019-01-14T14:32:21.176Z,32.10
2019-01-14T14:34:48.825Z,32.10
2019-01-14T14:37:16.493Z,32.00
2019-01-14T14:39:48.530Z,32.30
2019-01-14T14:42:13.652Z,32.30
2019-01-14T14:44:41.442Z,32.40
2019-01-14T14:47:09.420Z,32.40
2019-01-14T14:49:37.237Z,32.40
2019-01-14T14:52:04.864Z,32.60
2019-01-14T14:54:32.581Z,32.60
2019-01-14T14:57:00.392Z,32.50
2019-01-14T14:59:28.264Z,32.60
2019-01-14T15:01:55.885Z,32.80
2019-01-14T15:04:23.567Z,32.80
2019-01-14T15:06:51.364Z,32.80
2019-01-14T15:09:18.979Z,32.80
2019-01-14T15:11:46.734Z,32.90
2019-01-14T15:14:14.426Z,32.90
2019-01-14T15:16:42.699Z,32.90
2019-01-14T15:19:11.986Z,32.80
2019-01-14T15:21:39.649Z,32.70
2019-01-14T15:24:07.270Z,32.70
2019-01-14T15:26:34.848Z,32.80
2019-01-14T15:29:02.519Z,32.80
2019-01-14T15:31:30.194Z,32.90
2019-01-14T15:33:57.948Z,32.90
2019-01-14T15:36:25.561Z,32.90
2019-01-14T15:38:53.291Z,33.00
2019-01-14T15:41:21.020Z,33.00
2019-01-14T15:43:48.632Z,33.00
2019-01-14T15:46:16.284Z,33.10
2019-01-14T15:48:43.922Z,33.20
2019-01-14T15:51:11.508Z,33.30
2019-01-14T15:53:39.170Z,33.40
2019-01-14T15:56:06.781Z,33.50
2019-01-14T15:58:34.378Z,33.50
2019-01-14T16:01:02.032Z,33.60
2019-01-14T16:03:29.625Z,33.50
2019-01-14T16:05:57.288Z,33.20
2019-01-14T16:08:24.977Z,33.10
2019-01-14T16:10:52.638Z,32.90
2019-01-14T16:13:20.292Z,32.70
2019-01-14T16:15:47.911Z,32.70
2019-01-14T16:18:15.558Z,32.50
2019-01-14T16:20:43.286Z,32.50
2019-01-14T16:23:10.896Z,32.30
2019-01-14T16:25:38.563Z,32.30
2019-01-14T16:28:06.208Z,32.30
2019-01-14T16:30:34.009Z,32.40
2019-01-14T16:33:01.706Z,32.50
2019-01-14T16:35:29.374Z,32.70
2019-01-14T16:37:57.048Z,32.90
2019-01-14T16:40:24.642Z,32.60
2019-01-14T16:42:52.398Z,30.30
2019-01-14T16:45:20.856Z,29.80
2019-01-14T16:47:48.476Z,29.40
2019-01-14T16:50:16.108Z,29.70
2019-01-14T16:52:43.815Z,32.00
2019-01-14T16:55:13.031Z,29.70
2019-01-14T16:57:40.735Z,29.30
2019-01-14T17:00:15.713Z,28.90
2019-01-14T17:02:43.337Z,29.00
2019-01-14T17:05:13.471Z,30.00
2019-01-14T17:07:40.314Z,30.00
2019-01-14T17:10:09.694Z,30.30
2019-01-14T17:12:37.386Z,36.20
2019-01-14T17:15:05.396Z,30.30
2019-01-14T17:17:33.278Z,29.80
2019-01-14T17:20:00.953Z,30.20
2019-01-14T17:22:28.636Z,30.20
2019-01-14T17:24:56.258Z,30.20
2019-01-14T17:27:23.953Z,30.20
2019-01-14T17:29:51.715Z,30.20
2019-01-14T17:32:19.542Z,30.20
2019-01-14T17:34:47.207Z,30.10
2019-01-14T17:37:14.902Z,30.10
2019-01-14T17:39:42.593Z,30.00
2019-01-14T17:42:10.252Z,30.00
2019-01-14T17:44:38.042Z,30.10
2019-01-14T17:47:05.737Z,30.30
2019-01-14T17:49:33.356Z,30.90
2019-01-14T17:52:01.105Z,31.70
2019-01-14T17:54:28.836Z,32.30
2019-01-14T17:56:56.515Z,32.80
2019-01-14T17:59:24.246Z,33.00
2019-01-14T18:01:52.137Z,33.50
2019-01-14T18:04:19.784Z,33.60
2019-01-14T18:06:47.492Z,32.80
2019-01-14T18:09:15.244Z,32.90
2019-01-14T18:11:42.920Z,32.90
2019-01-14T18:14:10.561Z,32.90
2019-01-14T18:16:38.209Z,34.80
2019-01-14T18:19:05.887Z,34.80
2019-01-14T18:21:33.494Z,34.70
2019-01-14T18:24:01.158Z,34.60
2019-01-14T18:26:28.837Z,34.60
2019-01-14T18:28:56.458Z,34.40
2019-01-14T18:31:24.093Z,34.70
2019-01-14T18:33:51.716Z,34.50
2019-01-14T18:36:19.307Z,34.50
2019-01-14T18:38:46.974Z,36.40
2019-01-14T18:41:14.630Z,36.10
2019-01-14T18:43:42.344Z,35.90
2019-01-14T18:46:10.054Z,36.00
2019-01-14T18:48:37.669Z,36.10
2019-01-14T18:51:05.289Z,36.10
2019-01-14T18:53:32.957Z,36.10
2019-01-14T18:56:00.628Z,36.10
2019-01-14T18:58:28.289Z,36.20
2019-01-14T19:00:56.002Z,26.90
2019-01-14T19:03:23.698Z,28.30
2019-01-14T19:05:51.343Z,22.90
2019-01-14T19:08:18.929Z,19.10
2019-01-14T19:10:46.549Z,21.00
2019-01-14T19:13:14.338Z,19.60
2019-01-14T19:15:42.008Z,17.90
2019-01-14T19:18:09.660Z,18.10
2019-01-14T19:20:37.371Z,18.80
2019-01-14T19:23:05.057Z,19.30
2019-01-14T19:25:32.786Z,18.60
2019-01-14T19:28:00.385Z,18.70
2019-01-14T19:30:28.063Z,16.30
2019-01-14T19:32:55.802Z,16.30
2019-01-14T19:35:23.485Z,19.90
2019-01-14T19:37:51.211Z,20.90
2019-01-14T19:40:18.974Z,21.80
2019-01-14T19:42:46.640Z,22.10
2019-01-14T19:45:15.489Z,22.30
2019-01-14T19:47:43.121Z,22.40
2019-01-14T19:50:12.445Z,22.70
2019-01-14T19:52:40.179Z,22.80
2019-01-14T19:55:07.814Z,22.90
2019-01-14T19:57:35.399Z,23.10
2019-01-14T20:00:04.016Z,23.50
2019-01-14T20:02:31.608Z,23.70
2019-01-14T20:04:59.279Z,24.10
2019-01-14T20:07:27.010Z,24.30
2019-01-14T20:09:54.693Z,24.40
2019-01-14T20:12:22.443Z,24.60
2019-01-14T20:14:50.130Z,24.80
2019-01-14T20:17:17.815Z,24.90
2019-01-14T20:19:45.443Z,25.60
2019-01-14T20:22:13.032Z,25.40
2019-01-14T20:24:40.686Z,25.80
2019-01-14T20:27:08.311Z,25.80
2019-01-14T20:29:35.991Z,26.10
2019-01-14T20:32:03.710Z,26.20
2019-01-14T20:34:31.368Z,26.40
2019-01-14T20:36:58.988Z,26.60
2019-01-14T20:39:26.652Z,26.90
2019-01-14T20:41:54.316Z,27.00
2019-01-14T20:44:21.912Z,27.00
2019-01-14T20:46:49.561Z,27.20
2019-01-14T20:49:17.172Z,27.70
2019-01-14T20:51:44.833Z,28.10
2019-01-14T20:54:12.566Z,28.20
2019-01-14T20:56:40.188Z,28.20
2019-01-14T20:59:07.913Z,28.20
2019-01-14T21:01:35.561Z,28.20
2019-01-14T21:04:03.387Z,28.20
2019-01-14T21:06:31.009Z,28.20
2019-01-14T21:08:58.746Z,28.20
2019-01-14T21:11:26.401Z,28.20
2019-01-14T21:13:54.019Z,28.20
2019-01-14T21:16:21.747Z,28.20
2019-01-14T21:18:49.443Z,28.20
2019-01-14T21:21:17.123Z,28.20
2019-01-14T21:23:44.846Z,28.20
2019-01-14T21:26:12.446Z,28.30
2019-01-14T21:28:40.092Z,28.30
2019-01-14T21:31:07.687Z,28.30
2019-01-14T21:33:35.296Z,28.30
2019-01-14T21:36:02.959Z,28.30
2019-01-14T21:38:30.625Z,28.30
2019-01-14T21:40:58.304Z,28.30
2019-01-14T21:43:25.949Z,28.30
2019-01-14T21:45:53.560Z,28.30
2019-01-14T21:48:21.308Z,28.30
2019-01-14T21:50:49.028Z,28.30
2019-01-14T21:53:21.410Z,28.30
2019-01-14T21:55:56.214Z,28.30
2019-01-14T21:58:23.810Z,28.30
2019-01-14T22:00:51.500Z,28.30
2019-01-14T22:03:19.244Z,28.30
2019-01-14T22:05:47.014Z,28.30
2019-01-14T22:08:14.684Z,28.30
2019-01-14T22:10:43.950Z,28.30
2019-01-14T22:13:11.686Z,28.30
2019-01-14T22:15:39.314Z,28.30
2019-01-14T22:18:06.928Z,28.30
2019-01-14T22:20:34.597Z,28.30
2019-01-14T22:23:02.352Z,28.30
2019-01-14T22:25:30.077Z,28.40
2019-01-14T22:27:57.770Z,28.50
2019-01-14T22:30:27.100Z,28.60
2019-01-14T22:32:54.800Z,28.80
2019-01-14T22:35:22.478Z,28.60
2019-01-14T22:37:50.147Z,28.70
2019-01-14T22:40:17.832Z,28.80
2019-01-14T22:42:45.460Z,28.80
2019-01-14T22:45:13.076Z,28.90
2019-01-14T22:47:40.837Z,29.00
2019-01-14T22:50:10.179Z,29.10
2019-01-14T22:52:37.840Z,29.00
2019-01-14T22:55:06.736Z,29.00
2019-01-14T22:57:34.916Z,29.00
2019-01-14T23:00:04.252Z,29.10
2019-01-14T23:02:32.134Z,29.10
2019-01-14T23:04:59.846Z,29.70
2019-01-14T23:07:27.530Z,29.20
2019-01-14T23:09:55.174Z,29.10
2019-01-14T23:12:22.816Z,29.10
2019-01-14T23:14:50.483Z,29.20
2019-01-14T23:17:18.126Z,29.20
2019-01-14T23:19:45.726Z,29.20
2019-01-14T23:22:13.444Z,29.30
2019-01-14T23:24:41.084Z,29.40
2019-01-14T23:27:08.670Z,29.40
2019-01-14T23:29:36.354Z,29.30
2019-01-14T23:32:04.048Z,29.40
2019-01-14T23:34:31.634Z,29.50
2019-01-14T23:36:59.235Z,29.60
2019-01-14T23:39:26.962Z,29.60
2019-01-14T23:42:00.322Z,29.60
2019-01-14T23:44:23.943Z,29.60
2019-01-14T23:46:51.619Z,29.70
2019-01-14T23:49:19.390Z,29.80
2019-01-14T23:51:47.015Z,29.80
2019-01-14T23:54:14.696Z,29.80
2019-01-14T23:56:42.436Z,29.80
2019-01-14T23:59:10.040Z,29.80
